Terminal Aerodrome Forecast
Issued by NWS

Home | Current Version | Previous Version | Text Only | Print | Product List | Glossary On
Versions: 1 2 3 4 5 6 7 8 9 10 11 12 13 14 15
000
FTUS43 KDLH 301725
TAFHIB
TAF
KHIB 301725Z 3018/0118 08012G22KT P6SM BKN050
     FM010200 09006KT P6SM SKC
     FM011400 01012KT P6SM SCT050=

USA.gov is the U.S. government's official web portal to all federal, state and local government web resources and services.